createdAt,value
2022-10-17T00:02:21.758Z,1.70
2022-10-17T00:05:07.542Z,1.50
2022-10-17T00:07:53.183Z,1.35
2022-10-17T00:10:39.509Z,1.73
2022-10-17T00:13:25.529Z,1.70
2022-10-17T00:16:11.172Z,1.58
2022-10-17T00:18:57.239Z,1.90
2022-10-17T00:21:42.583Z,1.48
2022-10-17T00:24:30.014Z,1.67
2022-10-17T00:27:15.574Z,1.50
2022-10-17T00:30:01.167Z,1.70
2022-10-17T00:32:46.778Z,1.55
2022-10-17T00:35:32.455Z,1.98
2022-10-17T00:38:17.851Z,1.67
2022-10-17T00:41:04.030Z,1.90
2022-10-17T00:43:54.399Z,1.60
2022-10-17T00:46:40.113Z,1.50
2022-10-17T00:49:28.639Z,1.50
2022-10-17T00:52:18.192Z,1.73
2022-10-17T00:55:13.888Z,1.30
2022-10-17T00:58:01.966Z,1.40
2022-10-17T01:00:48.598Z,1.40
2022-10-17T01:03:34.060Z,1.85
2022-10-17T01:06:19.554Z,1.77
2022-10-17T01:09:05.256Z,1.60
2022-10-17T01:12:11.716Z,2.03
2022-10-17T01:15:15.603Z,2.17
2022-10-17T01:18:27.971Z,2.35
2022-10-17T01:21:27.873Z,1.85
2022-10-17T01:24:40.034Z,2.45
2022-10-17T01:27:38.781Z,1.95
2022-10-17T01:31:09.367Z,1.80
2022-10-17T01:33:58.048Z,1.60
2022-10-17T01:36:55.147Z,1.98
2022-10-17T01:39:56.137Z,1.60
2022-10-17T01:42:58.792Z,1.58
2022-10-17T01:45:54.937Z,1.63
2022-10-17T01:48:43.169Z,1.50
2022-10-17T01:51:37.672Z,1.40
2022-10-17T01:54:25.060Z,1.70
2022-10-17T01:57:36.417Z,1.70
2022-10-17T02:00:24.645Z,2.00
2022-10-17T02:03:15.031Z,1.70
2022-10-17T02:06:01.318Z,1.50
2022-10-17T02:08:50.037Z,1.75
2022-10-17T02:11:35.449Z,1.70
2022-10-17T02:14:43.787Z,1.90
2022-10-17T02:17:47.563Z,1.88
2022-10-17T02:21:05.392Z,1.88
2022-10-17T02:24:19.682Z,1.45
2022-10-17T02:27:17.129Z,1.90
2022-10-17T02:30:10.481Z,1.65
2022-10-17T02:33:04.676Z,1.70
2022-10-17T02:35:54.532Z,1.70
2022-10-17T02:38:41.054Z,1.67
2022-10-17T02:41:26.979Z,1.75
2022-10-17T02:44:12.393Z,1.60
2022-10-17T02:47:12.698Z,1.70
2022-10-17T02:50:01.242Z,1.60
2022-10-17T02:52:55.382Z,1.50
2022-10-17T02:55:47.852Z,2.60
2022-10-17T02:58:35.347Z,1.80
2022-10-17T03:01:21.899Z,1.90
2022-10-17T03:04:12.937Z,2.00
2022-10-17T03:06:58.265Z,1.80
2022-10-17T03:09:43.662Z,2.47
2022-10-17T03:12:29.548Z,2.00
2022-10-17T03:15:15.450Z,1.75
2022-10-17T03:18:01.074Z,1.70
2022-10-17T03:20:46.653Z,1.60
2022-10-17T03:23:32.330Z,1.83
2022-10-17T03:26:17.727Z,1.67
2022-10-17T03:29:03.399Z,1.65
2022-10-17T03:31:49.096Z,1.70
2022-10-17T03:34:34.771Z,1.92
2022-10-17T03:37:20.368Z,1.58
2022-10-17T03:40:06.441Z,2.05
2022-10-17T03:42:52.022Z,1.80
2022-10-17T03:45:37.432Z,1.90
2022-10-17T03:48:23.056Z,2.15
2022-10-17T03:51:09.725Z,1.90
2022-10-17T03:53:55.016Z,2.25
2022-10-17T03:56:40.476Z,2.00
2022-10-17T03:59:25.711Z,2.05
2022-10-17T04:02:11.474Z,1.83
2022-10-17T04:04:56.774Z,1.80
2022-10-17T04:07:42.301Z,2.00
2022-10-17T04:10:27.954Z,1.80
2022-10-17T04:13:13.262Z,1.77
2022-10-17T04:16:04.979Z,2.30
2022-10-17T04:18:56.000Z,1.80
2022-10-17T04:21:41.599Z,1.75
2022-10-17T04:24:26.847Z,1.80
2022-10-17T04:27:12.482Z,2.00
2022-10-17T04:29:57.792Z,1.85
2022-10-17T04:32:43.354Z,1.75
2022-10-17T04:35:29.035Z,2.00
2022-10-17T04:38:14.520Z,2.05
2022-10-17T04:41:04.527Z,2.05
2022-10-17T04:43:51.238Z,1.83
2022-10-17T04:46:37.122Z,2.13
2022-10-17T04:49:22.496Z,2.10
2022-10-17T04:52:08.095Z,1.88
2022-10-17T04:54:53.964Z,2.10
2022-10-17T04:57:39.315Z,2.10
2022-10-17T05:00:24.818Z,2.20
2022-10-17T05:03:10.556Z,2.05
2022-10-17T05:05:56.122Z,2.30
2022-10-17T05:08:42.003Z,1.90
2022-10-17T05:11:29.246Z,1.75
2022-10-17T05:14:15.861Z,2.20
2022-10-17T05:17:01.107Z,2.17
2022-10-17T05:19:46.474Z,2.28
2022-10-17T05:22:32.092Z,2.03
2022-10-17T05:25:17.888Z,1.98
2022-10-17T05:28:03.461Z,2.38
2022-10-17T05:30:48.900Z,2.22
2022-10-17T05:33:34.623Z,2.17
2022-10-17T05:36:19.889Z,2.67
2022-10-17T05:39:05.559Z,2.33
2022-10-17T05:41:52.434Z,2.67
2022-10-17T05:44:39.310Z,2.58
2022-10-17T05:47:24.840Z,2.50
2022-10-17T05:50:11.132Z,2.40
2022-10-17T05:52:56.624Z,2.42
2022-10-17T05:55:41.845Z,2.40
2022-10-17T06:01:33.862Z,1.95
2022-10-17T06:04:19.436Z,2.30
2022-10-17T06:07:05.272Z,2.08
2022-10-17T06:09:50.694Z,1.98
2022-10-17T06:12:36.231Z,2.28
2022-10-17T06:15:21.436Z,2.20
2022-10-17T06:18:07.078Z,2.13
2022-10-17T06:20:53.353Z,2.10
2022-10-17T06:23:38.944Z,2.30
2022-10-17T06:26:24.427Z,2.00
2022-10-17T06:29:10.531Z,2.28
2022-10-17T06:31:56.238Z,2.10
2022-10-17T06:34:41.475Z,2.10
2022-10-17T06:37:35.312Z,2.00
2022-10-17T06:40:22.476Z,1.90
2022-10-17T06:43:07.891Z,2.17
2022-10-17T06:45:53.252Z,2.17
2022-10-17T06:48:38.931Z,2.35
2022-10-17T06:51:24.262Z,2.05
2022-10-17T06:54:09.562Z,2.05
2022-10-17T06:56:56.171Z,1.90
2022-10-17T06:59:41.404Z,2.13
2022-10-17T07:02:27.416Z,1.77
2022-10-17T07:05:13.434Z,1.77
2022-10-17T07:07:58.987Z,1.90
2022-10-17T07:10:44.566Z,2.00
2022-10-17T07:13:29.809Z,2.17
2022-10-17T07:16:16.458Z,1.67
2022-10-17T07:19:02.068Z,1.85
2022-10-17T07:21:47.646Z,1.70
2022-10-17T07:24:33.313Z,1.60
2022-10-17T07:27:18.919Z,1.85
2022-10-17T07:30:05.014Z,1.73
2022-10-17T07:32:54.401Z,1.67
2022-10-17T07:35:41.042Z,1.80
2022-10-17T07:38:27.898Z,1.63
2022-10-17T07:41:17.891Z,1.75
2022-10-17T07:44:06.569Z,1.60
2022-10-17T07:46:52.203Z,1.60
2022-10-17T07:49:42.474Z,1.48
2022-10-17T07:52:28.246Z,1.50
2022-10-17T07:55:13.899Z,1.48
2022-10-17T07:58:00.540Z,1.40
2022-10-17T08:00:48.576Z,1.42
2022-10-17T08:03:34.505Z,1.45
2022-10-17T08:06:20.247Z,1.40
2022-10-17T08:09:05.594Z,1.50
2022-10-17T08:11:50.864Z,1.40
2022-10-17T08:14:36.423Z,2.00
2022-10-17T08:17:22.003Z,1.60
2022-10-17T08:20:07.839Z,1.70
2022-10-17T08:22:54.683Z,1.50
2022-10-17T08:25:40.097Z,1.45
2022-10-17T08:28:25.555Z,1.48
2022-10-17T08:31:13.920Z,1.30
2022-10-17T08:33:59.266Z,1.55
2022-10-17T08:36:44.824Z,1.50
2022-10-17T08:39:30.432Z,1.48
2022-10-17T08:42:37.046Z,1.25
2022-10-17T08:45:41.030Z,1.60
2022-10-17T08:48:31.583Z,1.50
2022-10-17T08:51:25.069Z,2.22
2022-10-17T08:54:19.525Z,1.35
2022-10-17T08:57:05.529Z,1.88
2022-10-17T08:59:53.458Z,1.58
2022-10-17T09:03:06.232Z,1.70
2022-10-17T09:06:17.245Z,1.50
2022-10-17T09:09:29.927Z,1.60
2022-10-17T09:12:45.648Z,1.48
2022-10-17T09:15:39.903Z,1.40
2022-10-17T09:18:32.029Z,1.50
2022-10-17T09:21:27.068Z,1.55
2022-10-17T09:24:22.466Z,1.30
2022-10-17T09:27:38.050Z,1.50
2022-10-17T09:30:45.110Z,1.70
2022-10-17T09:33:53.938Z,1.55
2022-10-17T09:36:40.816Z,1.42
2022-10-17T09:39:31.814Z,1.60
2022-10-17T09:42:21.736Z,1.60
2022-10-17T09:45:24.763Z,1.80
2022-10-17T09:48:29.787Z,1.63
2022-10-17T09:51:25.779Z,1.50
2022-10-17T09:54:23.177Z,1.42
2022-10-17T09:57:10.649Z,1.75
2022-10-17T10:00:02.594Z,1.70
2022-10-17T10:02:47.655Z,1.70
2022-10-17T10:05:33.452Z,1.67
2022-10-17T10:08:19.841Z,1.80
2022-10-17T10:11:13.352Z,1.73
2022-10-17T10:14:12.264Z,1.60
2022-10-17T10:16:57.938Z,2.20
2022-10-17T10:19:52.149Z,1.80
2022-10-17T10:22:37.811Z,2.13
2022-10-17T10:25:23.447Z,2.50
2022-10-17T10:28:12.073Z,2.15
2022-10-17T10:31:01.259Z,2.10
2022-10-17T10:33:49.569Z,2.10
2022-10-17T10:36:46.001Z,2.55
2022-10-17T10:39:45.943Z,2.42
2022-10-17T10:42:37.072Z,2.40
2022-10-17T10:48:35.379Z,2.38
2022-10-17T10:51:44.301Z,2.25
2022-10-17T10:54:36.951Z,3.03
2022-10-17T10:57:25.492Z,2.20
2022-10-17T11:00:19.499Z,3.20
2022-10-17T11:03:23.905Z,2.55
2022-10-17T11:06:27.125Z,2.72
2022-10-17T11:09:42.808Z,2.30
2022-10-17T11:12:36.637Z,2.70
2022-10-17T11:15:34.794Z,2.42
2022-10-17T11:18:35.736Z,2.67
2022-10-17T11:21:47.625Z,2.97
2022-10-17T11:25:03.718Z,2.33
2022-10-17T11:27:49.502Z,2.67
2022-10-17T11:30:56.452Z,3.22
2022-10-17T11:33:58.503Z,2.40
2022-10-17T11:36:45.624Z,2.38
2022-10-17T11:39:57.852Z,2.80
2022-10-17T11:43:11.337Z,2.80
2022-10-17T11:46:06.295Z,3.47
2022-10-17T11:49:17.396Z,2.65
2022-10-17T11:52:31.883Z,2.70
2022-10-17T11:55:30.597Z,2.50
2022-10-17T11:59:10.191Z,2.60
2022-10-17T12:02:01.924Z,2.40
2022-10-17T12:05:12.418Z,2.72
2022-10-17T12:08:10.365Z,2.17
2022-10-17T12:11:05.997Z,2.47
2022-10-17T12:13:54.549Z,2.35
2022-10-17T12:16:45.193Z,2.47
2022-10-17T12:19:37.604Z,2.55
2022-10-17T12:22:28.664Z,2.20
2022-10-17T12:25:35.374Z,3.10
2022-10-17T12:28:29.608Z,2.45
2022-10-17T12:31:19.030Z,2.70
2022-10-17T12:34:05.524Z,2.97
2022-10-17T12:36:51.185Z,2.60
2022-10-17T12:39:36.576Z,2.50
2022-10-17T12:42:33.478Z,2.30
2022-10-17T12:45:49.971Z,2.72
2022-10-17T12:48:38.784Z,2.50
2022-10-17T12:51:40.721Z,2.58
2022-10-17T12:54:26.340Z,2.47
2022-10-17T12:57:31.446Z,2.30
2022-10-17T13:00:43.879Z,2.40
2022-10-17T13:03:44.366Z,2.20
2022-10-17T13:06:37.782Z,2.50
2022-10-17T13:09:23.214Z,2.13
2022-10-17T13:12:14.936Z,2.63
2022-10-17T13:15:01.132Z,2.30
2022-10-17T13:17:59.648Z,2.70
2022-10-17T13:20:57.934Z,2.85
2022-10-17T13:23:43.492Z,2.80
2022-10-17T13:26:29.198Z,2.70
2022-10-17T13:29:16.012Z,2.33
2022-10-17T13:32:05.415Z,2.58
2022-10-17T13:35:10.907Z,2.40
2022-10-17T13:37:57.233Z,2.75
2022-10-17T13:40:49.954Z,2.38
2022-10-17T13:43:35.609Z,2.60
2022-10-17T13:46:40.173Z,2.35
2022-10-17T13:52:25.817Z,2.35
2022-10-17T13:55:17.911Z,2.47
2022-10-17T13:58:17.776Z,2.75
2022-10-17T14:01:03.319Z,2.80
2022-10-17T14:03:57.060Z,2.58
2022-10-17T14:06:51.192Z,2.40
2022-10-17T14:09:37.241Z,2.90
2022-10-17T14:12:22.971Z,2.42
2022-10-17T14:15:15.154Z,3.00
2022-10-17T14:18:09.157Z,2.90
2022-10-17T14:21:32.139Z,2.22
2022-10-17T14:24:27.848Z,2.72
2022-10-17T14:27:42.478Z,2.20
2022-10-17T14:33:36.386Z,2.20
2022-10-17T14:36:33.824Z,2.55
2022-10-17T14:39:23.100Z,2.40
2022-10-17T14:42:18.777Z,2.50
2022-10-17T14:45:09.561Z,2.30
2022-10-17T14:48:00.143Z,3.00
2022-10-17T14:51:15.417Z,2.90
2022-10-17T14:54:22.169Z,2.78
2022-10-17T14:57:28.227Z,2.70
2022-10-17T15:00:18.815Z,2.63
2022-10-17T15:03:04.298Z,2.80
2022-10-17T15:05:50.972Z,2.80
2022-10-17T15:08:36.349Z,2.75
2022-10-17T15:11:21.755Z,2.75
2022-10-17T15:14:07.320Z,2.63
2022-10-17T15:16:52.975Z,2.55
2022-10-17T15:19:38.175Z,2.85
2022-10-17T15:22:24.315Z,3.28
2022-10-17T15:25:10.116Z,2.63
2022-10-17T15:27:56.311Z,2.97
2022-10-17T15:30:41.921Z,2.83
2022-10-17T15:33:31.224Z,2.80
2022-10-17T15:36:40.545Z,4.25
2022-10-17T15:39:26.210Z,3.17
2022-10-17T15:42:12.517Z,21.63
2022-10-17T15:44:58.474Z,22.95
2022-10-17T15:47:49.827Z,17.15
2022-10-17T15:50:35.459Z,10.50
2022-10-17T15:53:20.739Z,7.00
2022-10-17T15:56:06.699Z,3.78
2022-10-17T15:58:52.247Z,4.05
2022-10-17T16:01:39.307Z,3.70
2022-10-17T16:04:27.192Z,2.83
2022-10-17T16:07:12.675Z,2.97
2022-10-17T16:09:58.272Z,3.13
2022-10-17T16:12:44.187Z,2.47
2022-10-17T16:15:29.826Z,2.88
2022-10-17T16:18:15.312Z,3.05
2022-10-17T16:21:00.704Z,3.05
2022-10-17T16:23:46.408Z,3.30
2022-10-17T16:26:32.363Z,3.30
2022-10-17T16:29:17.754Z,3.53
2022-10-17T16:32:03.237Z,3.58
2022-10-17T16:34:48.440Z,2.92
2022-10-17T16:37:34.016Z,3.00
2022-10-17T16:40:19.953Z,3.10
2022-10-17T16:43:05.524Z,3.08
2022-10-17T16:45:50.798Z,2.75
2022-10-17T16:48:36.303Z,2.80
2022-10-17T16:51:22.000Z,3.05
2022-10-17T16:54:07.402Z,6.70
2022-10-17T16:56:52.636Z,4.43
2022-10-17T16:59:38.062Z,4.32
2022-10-17T17:02:23.705Z,3.50
2022-10-17T17:05:09.495Z,3.13
2022-10-17T17:07:56.049Z,3.20
2022-10-17T17:10:54.180Z,3.42
2022-10-17T17:13:40.800Z,3.78
2022-10-17T17:16:27.721Z,3.30
2022-10-17T17:19:15.249Z,3.35
2022-10-17T17:22:00.493Z,3.15
2022-10-17T17:24:46.137Z,3.53
2022-10-17T17:27:31.830Z,3.40
2022-10-17T17:30:17.777Z,3.13
2022-10-17T17:33:03.208Z,3.28
2022-10-17T17:35:53.585Z,3.80
2022-10-17T17:38:41.217Z,3.70
2022-10-17T17:41:27.388Z,4.53
2022-10-17T17:44:16.601Z,4.55
2022-10-17T17:47:02.453Z,4.28
2022-10-17T17:49:48.443Z,4.57
2022-10-17T17:52:34.002Z,4.80
2022-10-17T17:55:19.679Z,5.10
2022-10-17T17:58:06.168Z,4.18
2022-10-17T18:00:51.623Z,4.82
2022-10-17T18:03:39.673Z,4.20
2022-10-17T18:06:26.236Z,4.40
2022-10-17T18:09:11.886Z,4.43
2022-10-17T18:11:57.493Z,4.20
2022-10-17T18:14:43.075Z,3.45
2022-10-17T18:17:28.302Z,3.60
2022-10-17T18:20:14.176Z,3.83
2022-10-17T18:23:01.978Z,4.07
2022-10-17T18:25:57.264Z,3.47
2022-10-17T18:28:43.548Z,3.50
2022-10-17T18:31:32.060Z,3.20
2022-10-17T18:34:18.184Z,3.15
2022-10-17T18:37:03.914Z,3.95
2022-10-17T18:39:51.605Z,3.75
2022-10-17T18:42:37.347Z,3.50
2022-10-17T18:45:23.053Z,4.15
2022-10-17T18:48:10.018Z,3.00
2022-10-17T18:50:55.516Z,3.03
2022-10-17T18:53:42.770Z,3.85
2022-10-17T18:56:28.486Z,3.60
2022-10-17T18:59:14.000Z,3.60
2022-10-17T19:01:59.774Z,3.97
2022-10-17T19:04:45.660Z,4.63
2022-10-17T19:07:31.569Z,4.28
2022-10-17T19:10:17.422Z,4.32
2022-10-17T19:13:02.722Z,4.03
2022-10-17T19:15:48.311Z,4.93
2022-10-17T19:18:35.096Z,4.63
2022-10-17T19:21:21.981Z,5.40
2022-10-17T19:24:13.227Z,5.78
2022-10-17T19:27:02.694Z,5.82
2022-10-17T19:29:48.263Z,5.55
2022-10-17T19:32:34.243Z,4.50
2022-10-17T19:35:19.521Z,5.30
2022-10-17T19:38:05.275Z,5.07
2022-10-17T19:40:50.783Z,4.63
2022-10-17T19:43:37.664Z,4.90
2022-10-17T19:46:26.370Z,4.50
2022-10-17T19:49:12.107Z,4.40
2022-10-17T19:51:57.356Z,4.30
2022-10-17T19:54:42.885Z,4.32
2022-10-17T19:57:28.473Z,4.45
2022-10-17T20:00:14.829Z,4.05
2022-10-17T20:03:02.399Z,4.40
2022-10-17T20:05:48.000Z,4.15
2022-10-17T20:08:33.573Z,3.88
2022-10-17T20:11:21.742Z,4.25
2022-10-17T20:14:07.237Z,4.57
2022-10-17T20:16:52.753Z,5.07
2022-10-17T20:19:37.880Z,4.88
2022-10-17T20:22:23.772Z,4.10
2022-10-17T20:25:09.157Z,4.22
2022-10-17T20:27:54.590Z,4.53
2022-10-17T20:30:46.056Z,3.80
2022-10-17T20:33:32.146Z,4.43
2022-10-17T20:36:20.181Z,3.90
2022-10-17T20:39:07.260Z,4.65
2022-10-17T20:41:52.662Z,5.00
2022-10-17T20:44:37.967Z,5.05
2022-10-17T20:47:43.552Z,4.45
2022-10-17T20:50:29.128Z,5.05
2022-10-17T20:53:35.978Z,4.93
2022-10-17T20:56:23.353Z,4.97
2022-10-17T20:59:12.695Z,4.38
2022-10-17T21:01:58.332Z,4.35
2022-10-17T21:04:46.663Z,4.50
2022-10-17T21:07:32.950Z,5.18
2022-10-17T21:10:35.265Z,4.50
2022-10-17T21:13:21.157Z,5.13
2022-10-17T21:16:14.911Z,5.40
2022-10-17T21:19:00.712Z,4.93
2022-10-17T21:21:46.769Z,5.20
2022-10-17T21:24:32.299Z,5.03
2022-10-17T21:27:19.031Z,5.80
2022-10-17T21:30:05.291Z,4.70
2022-10-17T21:32:54.632Z,4.90
2022-10-17T21:35:40.526Z,5.28
2022-10-17T21:38:25.922Z,5.35
2022-10-17T21:41:12.648Z,4.60
2022-10-17T21:44:00.529Z,5.15
2022-10-17T21:46:46.722Z,4.85
2022-10-17T21:49:32.294Z,4.70
2022-10-17T21:52:17.682Z,4.57
2022-10-17T21:55:03.487Z,4.72
2022-10-17T21:57:49.671Z,4.50
2022-10-17T22:00:35.243Z,4.65
2022-10-17T22:03:20.706Z,4.53
2022-10-17T22:06:26.593Z,4.53
2022-10-17T22:09:16.003Z,4.65
2022-10-17T22:12:01.282Z,4.65
2022-10-17T22:14:46.673Z,5.65
2022-10-17T22:17:32.428Z,4.13
2022-10-17T22:20:18.163Z,4.10
2022-10-17T22:23:04.223Z,4.05
2022-10-17T22:25:54.059Z,4.00
2022-10-17T22:28:41.055Z,3.72
2022-10-17T22:31:26.482Z,3.25
2022-10-17T22:34:14.002Z,3.75
2022-10-17T22:36:59.729Z,3.35
2022-10-17T22:39:45.099Z,3.40
2022-10-17T22:42:33.105Z,2.90
2022-10-17T22:45:21.331Z,3.53
2022-10-17T22:48:07.137Z,3.42
2022-10-17T22:50:53.432Z,3.40
2022-10-17T22:53:39.033Z,3.03
2022-10-17T22:56:24.696Z,3.15
2022-10-17T22:59:09.949Z,3.55
2022-10-17T23:01:55.558Z,3.67
2022-10-17T23:04:41.729Z,3.20
2022-10-17T23:07:27.789Z,3.40
2022-10-17T23:10:13.235Z,3.10
2022-10-17T23:12:58.779Z,3.75
2022-10-17T23:15:44.463Z,4.10
2022-10-17T23:21:16.257Z,3.47
2022-10-17T23:24:01.686Z,3.75
2022-10-17T23:26:47.223Z,3.35
2022-10-17T23:29:34.082Z,3.35
2022-10-17T23:32:21.096Z,3.30
2022-10-17T23:35:07.543Z,3.38
2022-10-17T23:37:53.094Z,3.35
2022-10-17T23:40:38.689Z,3.60
2022-10-17T23:43:26.538Z,3.38
2022-10-17T23:46:12.070Z,3.40
2022-10-17T23:48:57.570Z,4.38
2022-10-17T23:51:43.198Z,3.75
2022-10-17T23:54:28.911Z,3.60
2022-10-17T23:57:14.847Z,3.83
